sensor_id;sensor_type;location;lat;lon;timestamp;pressure;altitude;pressure_sealevel;temperature;humidity
59411;BME280;45215;32.610;-115.482;2022-09-20T00:00:45;100492.78;;;20.82;44.96
59411;BME280;45215;32.610;-115.482;2022-09-20T00:03:13;100488.13;;;20.46;39.92
59411;BME280;45215;32.610;-115.482;2022-09-20T00:05:43;100489.16;;;20.08;37.75
59411;BME280;45215;32.610;-115.482;2022-09-20T00:08:14;100491.00;;;20.07;39.94
59411;BME280;45215;32.610;-115.482;2022-09-20T00:10:41;100489.63;;;20.64;46.89
59411;BME280;45215;32.610;-115.482;2022-09-20T00:13:10;100487.28;;;20.90;43.67
59411;BME280;45215;32.610;-115.482;2022-09-20T00:15:44;100499.81;;;20.39;40.21
59411;BME280;45215;32.610;-115.482;2022-09-20T00:18:11;100489.50;;;19.90;38.58
59411;BME280;45215;32.610;-115.482;2022-09-20T00:20:47;100496.06;;;19.87;44.07
59411;BME280;45215;32.610;-115.482;2022-09-20T00:23:14;100497.25;;;20.45;47.73
59411;BME280;45215;32.610;-115.482;2022-09-20T00:25:41;100483.09;;;20.73;43.88
59411;BME280;45215;32.610;-115.482;2022-09-20T00:28:10;100488.00;;;20.25;40.25
59411;BME280;45215;32.610;-115.482;2022-09-20T00:30:37;100483.69;;;19.78;38.94
59411;BME280;45215;32.610;-115.482;2022-09-20T00:33:03;100477.19;;;19.72;43.67
59411;BME280;45215;32.610;-115.482;2022-09-20T00:35:30;100490.16;;;20.44;46.88
59411;BME280;45215;32.610;-115.482;2022-09-20T00:37:56;100482.09;;;20.74;44.29
59411;BME280;45215;32.610;-115.482;2022-09-20T00:40:24;100493.69;;;20.30;40.39
59411;BME280;45215;32.610;-115.482;2022-09-20T00:42:53;100489.44;;;19.75;38.62
59411;BME280;45215;32.610;-115.482;2022-09-20T00:45:25;100467.88;;;19.60;43.79
59411;BME280;45215;32.610;-115.482;2022-09-20T00:48:21;100465.81;;;20.23;47.41
59411;BME280;45215;32.610;-115.482;2022-09-20T00:51:03;100494.16;;;20.78;44.18
59411;BME280;45215;32.610;-115.482;2022-09-20T00:53:45;100480.44;;;20.05;40.03
59411;BME280;45215;32.610;-115.482;2022-09-20T00:56:19;100491.94;;;19.76;38.30
59411;BME280;45215;32.610;-115.482;2022-09-20T00:59:15;100490.03;;;19.85;45.07
59411;BME280;45215;32.610;-115.482;2022-09-20T01:01:45;100476.41;;;20.39;48.06
59411;BME280;45215;32.610;-115.482;2022-09-20T01:04:13;100498.47;;;20.58;42.92
59411;BME280;45215;32.610;-115.482;2022-09-20T01:06:42;100476.28;;;19.80;39.71
59411;BME280;45215;32.610;-115.482;2022-09-20T01:09:08;100475.28;;;19.35;38.17
59411;BME280;45215;32.610;-115.482;2022-09-20T01:11:36;100483.28;;;19.43;44.25
59411;BME280;45215;32.610;-115.482;2022-09-20T01:14:03;100480.44;;;20.05;47.21
59411;BME280;45215;32.610;-115.482;2022-09-20T01:16:30;100488.50;;;20.58;46.55
59411;BME280;45215;32.610;-115.482;2022-09-20T01:19:00;100487.91;;;20.18;41.14
59411;BME280;45215;32.610;-115.482;2022-09-20T01:21:28;100481.31;;;19.60;38.92
59411;BME280;45215;32.610;-115.482;2022-09-20T01:32:02;100489.03;;;20.24;42.19
59411;BME280;45215;32.610;-115.482;2022-09-20T01:34:36;100490.22;;;19.60;39.54
59411;BME280;45215;32.610;-115.482;2022-09-20T01:37:31;100490.94;;;19.23;39.43
59411;BME280;45215;32.610;-115.482;2022-09-20T01:40:22;100470.31;;;20.08;46.22
59411;BME280;45215;32.610;-115.482;2022-09-20T01:45:29;100478.47;;;20.67;41.51
59411;BME280;45215;32.610;-115.482;2022-09-20T02:02:27;100487.19;;;19.64;38.35
59411;BME280;45215;32.610;-115.482;2022-09-20T02:05:20;100489.66;;;19.42;41.83
59411;BME280;45215;32.610;-115.482;2022-09-20T02:10:46;100487.97;;;20.63;45.43
59411;BME280;45215;32.610;-115.482;2022-09-20T02:26:45;100482.81;;;20.23;40.80
59411;BME280;45215;32.610;-115.482;2022-09-20T02:37:47;100503.75;;;20.66;44.60
59411;BME280;45215;32.610;-115.482;2022-09-20T02:48:53;100521.72;;;19.98;46.65
59411;BME280;45215;32.610;-115.482;2022-09-20T02:51:35;100527.81;;;20.53;47.89
59411;BME280;45215;32.610;-115.482;2022-09-20T03:00:22;100507.34;;;19.36;44.36
59411;BME280;45215;32.610;-115.482;2022-09-20T03:08:22;100540.72;;;19.11;38.65
59411;BME280;45215;32.610;-115.482;2022-09-20T03:13:49;100547.09;;;20.03;43.07
59411;BME280;45215;32.610;-115.482;2022-09-20T03:22:25;100574.13;;;19.87;46.80
59411;BME280;45215;32.610;-115.482;2022-09-20T03:39:25;100580.69;;;19.22;37.81
59411;BME280;45215;32.610;-115.482;2022-09-20T03:42:18;100595.25;;;19.44;43.45
59411;BME280;45215;32.610;-115.482;2022-09-20T03:48:09;100601.75;;;19.58;39.55
59411;BME280;45215;32.610;-115.482;2022-09-20T03:53:48;100620.59;;;19.81;45.69
59411;BME280;45215;32.610;-115.482;2022-09-20T04:04:58;100624.50;;;19.78;46.33
59411;BME280;45215;32.610;-115.482;2022-09-20T04:19:23;100626.34;;;19.47;38.91
59411;BME280;45215;32.610;-115.482;2022-09-20T04:21:55;100622.63;;;19.00;39.89
59411;BME280;45215;32.610;-115.482;2022-09-20T04:32:37;100623.28;;;18.94;41.01
59411;BME280;45215;32.610;-115.482;2022-09-20T04:38:18;100612.22;;;19.76;40.92
59411;BME280;45215;32.610;-115.482;2022-09-20T04:46:24;100607.19;;;19.73;46.87
59411;BME280;45215;32.610;-115.482;2022-09-20T04:49:09;100617.16;;;19.64;40.13
59411;BME280;45215;32.610;-115.482;2022-09-20T04:55:04;100620.06;;;19.63;46.60
59411;BME280;45215;32.610;-115.482;2022-09-20T05:09:41;100613.84;;;19.54;40.14
59411;BME280;45215;32.610;-115.482;2022-09-20T05:18:29;100633.59;;;19.77;41.91
59411;BME280;45215;32.610;-115.482;2022-09-20T05:24:12;100642.34;;;19.40;45.63
59411;BME280;45215;32.610;-115.482;2022-09-20T05:36:18;100654.88;;;19.87;45.92
59411;BME280;45215;32.610;-115.482;2022-09-20T05:41:46;100658.88;;;19.12;43.40
59411;BME280;45215;32.610;-115.482;2022-09-20T05:50:12;100659.25;;;19.01;40.91
59411;BME280;45215;32.610;-115.482;2022-09-20T05:52:53;100640.34;;;19.34;46.30
59411;BME280;45215;32.610;-115.482;2022-09-20T06:01:22;100672.56;;;19.50;44.57
59411;BME280;45215;32.610;-115.482;2022-09-20T06:04:18;100677.19;;;20.04;47.11
59411;BME280;45215;32.610;-115.482;2022-09-20T06:07:01;100682.63;;;19.56;40.59
59411;BME280;45215;32.610;-115.482;2022-09-20T06:12:10;100682.97;;;19.53;46.22
59411;BME280;45215;32.610;-115.482;2022-09-20T06:17:52;100678.19;;;19.32;39.73
59411;BME280;45215;32.610;-115.482;2022-09-20T06:21:15;100679.84;;;19.33;45.30
59411;BME280;45215;32.610;-115.482;2022-09-20T06:23:14;100680.28;;;19.93;47.69
59411;BME280;45215;32.610;-115.482;2022-09-20T06:25:46;100677.56;;;19.62;41.69
59411;BME280;45215;32.610;-115.482;2022-09-20T06:28:17;100671.31;;;19.05;42.33
59411;BME280;45215;32.610;-115.482;2022-09-20T06:30:47;100688.81;;;19.65;46.95
59411;BME280;45215;32.610;-115.482;2022-09-20T06:35:50;100682.19;;;19.36;40.59
59411;BME280;45215;32.610;-115.482;2022-09-20T06:41:08;100669.09;;;19.73;49.36
59411;BME280;45215;32.610;-115.482;2022-09-20T06:43:58;100676.47;;;19.79;43.41
59411;BME280;45215;32.610;-115.482;2022-09-20T06:46:33;100677.69;;;19.12;42.95
59411;BME280;45215;32.610;-115.482;2022-09-20T06:49:02;100686.84;;;19.51;47.61
59411;BME280;45215;32.610;-115.482;2022-09-20T06:51:33;100671.41;;;19.84;47.69
59411;BME280;45215;32.610;-115.482;2022-09-20T06:54:00;100680.00;;;19.40;42.09
59411;BME280;45215;32.610;-115.482;2022-09-20T06:56:30;100676.53;;;18.99;45.35
59411;BME280;45215;32.610;-115.482;2022-09-20T06:59:04;100681.44;;;19.59;48.72
59411;BME280;45215;32.610;-115.482;2022-09-20T07:01:33;100689.50;;;19.98;45.91
59411;BME280;45215;32.610;-115.482;2022-09-20T07:03:59;100686.41;;;19.31;41.38
59411;BME280;45215;32.610;-115.482;2022-09-20T07:06:25;100698.19;;;19.13;46.15
59411;BME280;45215;32.610;-115.482;2022-09-20T07:08:53;100698.03;;;19.71;49.51
59411;BME280;45215;32.610;-115.482;2022-09-20T07:11:20;100687.38;;;19.86;43.99
59411;BME280;45215;32.610;-115.482;2022-09-20T07:13:53;100679.72;;;19.02;41.62
59411;BME280;45215;32.610;-115.482;2022-09-20T07:16:20;100694.47;;;19.31;48.04
59411;BME280;45215;32.610;-115.482;2022-09-20T07:18:47;100668.44;;;19.71;50.06
59411;BME280;45215;32.610;-115.482;2022-09-20T07:21:15;100686.66;;;19.60;43.18
59411;BME280;45215;32.610;-115.482;2022-09-20T07:23:42;100692.53;;;19.00;44.59
59411;BME280;45215;32.610;-115.482;2022-09-20T07:26:24;100692.41;;;19.57;49.70
59411;BME280;45215;32.610;-115.482;2022-09-20T07:28:51;100682.16;;;19.84;45.64
59411;BME280;45215;32.610;-115.482;2022-09-20T07:31:19;100689.44;;;19.20;41.78
59411;BME280;45215;32.610;-115.482;2022-09-20T07:33:45;100691.84;;;19.06;46.55
59411;BME280;45215;32.610;-115.482;2022-09-20T07:36:12;100693.34;;;19.65;49.79
59411;BME280;45215;32.610;-115.482;2022-09-20T07:38:39;100692.63;;;19.79;44.53
59411;BME280;45215;32.610;-115.482;2022-09-20T07:41:07;100693.69;;;19.06;42.19
59411;BME280;45215;32.610;-115.482;2022-09-20T07:43:34;100701.56;;;19.32;48.57
59411;BME280;45215;32.610;-115.482;2022-09-20T07:46:00;100705.38;;;19.85;49.92
59411;BME280;45215;32.610;-115.482;2022-09-20T07:48:44;100696.19;;;19.24;42.35
59411;BME280;45215;32.610;-115.482;2022-09-20T07:51:12;100705.09;;;19.00;45.67
59411;BME280;45215;32.610;-115.482;2022-09-20T07:53:39;100714.28;;;19.54;49.58
59411;BME280;45215;32.610;-115.482;2022-09-20T07:56:15;100716.47;;;19.90;46.03
59411;BME280;45215;32.610;-115.482;2022-09-20T07:58:42;100703.91;;;19.19;42.27
59411;BME280;45215;32.610;-115.482;2022-09-20T08:01:11;100710.47;;;19.32;48.16
59411;BME280;45215;32.610;-115.482;2022-09-20T08:03:38;100720.88;;;19.83;50.49
59411;BME280;45215;32.610;-115.482;2022-09-20T08:06:10;100714.97;;;19.79;44.42
59411;BME280;45215;32.610;-115.482;2022-09-20T08:08:39;100719.72;;;19.05;43.75
59411;BME280;45215;32.610;-115.482;2022-09-20T08:11:08;100716.31;;;19.44;49.47
59411;BME280;45215;32.610;-115.482;2022-09-20T08:13:48;100719.81;;;19.92;50.51
59411;BME280;45215;32.610;-115.482;2022-09-20T08:16:16;100713.81;;;19.43;43.49
59411;BME280;45215;32.610;-115.482;2022-09-20T08:19:01;100723.41;;;19.12;47.48
59411;BME280;45215;32.610;-115.482;2022-09-20T08:21:31;100718.41;;;19.65;50.48
59411;BME280;45215;32.610;-115.482;2022-09-20T08:23:58;100723.22;;;19.86;46.26
59411;BME280;45215;32.610;-115.482;2022-09-20T08:26:25;100718.53;;;19.08;42.84
59411;BME280;45215;32.610;-115.482;2022-09-20T08:28:54;100715.03;;;19.24;49.25
59411;BME280;45215;32.610;-115.482;2022-09-20T08:31:26;100712.16;;;19.73;50.98
59411;BME280;45215;32.610;-115.482;2022-09-20T08:33:53;100708.19;;;19.60;44.61
59411;BME280;45215;32.610;-115.482;2022-09-20T08:36:22;100719.22;;;19.02;45.15
59411;BME280;45215;32.610;-115.482;2022-09-20T08:38:49;100728.72;;;19.53;50.24
59411;BME280;45215;32.610;-115.482;2022-09-20T08:41:32;100732.56;;;19.98;48.93
59411;BME280;45215;32.610;-115.482;2022-09-20T08:44:18;100732.31;;;19.21;42.81
59411;BME280;45215;32.610;-115.482;2022-09-20T08:46:56;100740.03;;;19.32;49.19
59411;BME280;45215;32.610;-115.482;2022-09-20T08:49:26;100720.78;;;19.68;51.09
59411;BME280;45215;32.610;-115.482;2022-09-20T08:51:54;100731.88;;;19.65;44.87
59411;BME280;45215;32.610;-115.482;2022-09-20T08:54:24;100740.88;;;19.08;46.62
59411;BME280;45215;32.610;-115.482;2022-09-20T08:56:51;100741.19;;;19.54;50.64
59411;BME280;45215;32.610;-115.482;2022-09-20T08:59:20;100741.31;;;20.00;49.29
59411;BME280;45215;32.610;-115.482;2022-09-20T09:01:48;100725.91;;;19.38;43.48
59411;BME280;45215;32.610;-115.482;2022-09-20T09:04:17;100726.78;;;19.14;48.36
59411;BME280;45215;32.610;-115.482;2022-09-20T09:06:44;100745.66;;;19.70;51.07
59411;BME280;45215;32.610;-115.482;2022-09-20T09:09:27;100744.41;;;19.89;46.68
59411;BME280;45215;32.610;-115.482;2022-09-20T09:11:55;100739.06;;;19.09;44.32
59411;BME280;45215;32.610;-115.482;2022-09-20T09:14:26;100724.91;;;19.23;50.53
59411;BME280;45215;32.610;-115.482;2022-09-20T09:17:12;100750.47;;;19.91;51.99
59411;BME280;45215;32.610;-115.482;2022-09-20T09:19:45;100721.88;;;19.34;44.32
59411;BME280;45215;32.610;-115.482;2022-09-20T09:22:21;100744.25;;;19.10;47.34
59411;BME280;45215;32.610;-115.482;2022-09-20T09:27:33;100745.38;;;19.96;47.72
59411;BME280;45215;32.610;-115.482;2022-09-20T09:30:00;100738.88;;;19.10;43.66
59411;BME280;45215;32.610;-115.482;2022-09-20T09:32:28;100748.63;;;19.28;49.80
59411;BME280;45215;32.610;-115.482;2022-09-20T09:35:06;100738.38;;;19.79;51.87
59411;BME280;45215;32.610;-115.482;2022-09-20T09:37:53;100747.53;;;19.62;44.59
59411;BME280;45215;32.610;-115.482;2022-09-20T09:40:20;100753.31;;;19.18;47.67
59411;BME280;45215;32.610;-115.482;2022-09-20T09:45:36;100754.13;;;19.98;47.63
59411;BME280;45215;32.610;-115.482;2022-09-20T09:50:45;100746.25;;;19.41;50.72
59411;BME280;45215;32.610;-115.482;2022-09-20T09:53:15;100753.78;;;19.93;51.85
59411;BME280;45215;32.610;-115.482;2022-09-20T09:59:11;100744.94;;;19.29;49.97
59411;BME280;45215;32.610;-115.482;2022-09-20T10:02:00;100742.06;;;19.86;52.23
59411;BME280;45215;32.610;-115.482;2022-09-20T10:10:54;100734.50;;;19.81;51.59
59411;BME280;45215;32.610;-115.482;2022-09-20T10:16:18;100727.59;;;19.15;48.40
59411;BME280;45215;32.610;-115.482;2022-09-20T10:22:16;100730.13;;;19.80;46.54
59411;BME280;45215;32.610;-115.482;2022-09-20T10:28:06;100723.50;;;19.60;51.90
59411;BME280;45215;32.610;-115.482;2022-09-20T10:30:59;100735.88;;;19.77;46.49
59411;BME280;45215;32.610;-115.482;2022-09-20T10:36:19;100755.63;;;19.53;52.01
59411;BME280;45215;32.610;-115.482;2022-09-20T10:38:59;100725.44;;;19.82;49.38
59411;BME280;45215;32.610;-115.482;2022-09-20T10:47:55;100765.59;;;19.92;50.39
59411;BME280;45215;32.610;-115.482;2022-09-20T10:50:36;100763.75;;;19.12;44.44
59411;BME280;45215;32.610;-115.482;2022-09-20T10:56:08;100769.97;;;19.85;52.73
59411;BME280;45215;32.610;-115.482;2022-09-20T11:07:17;100760.22;;;19.84;47.53
59411;BME280;45215;32.610;-115.482;2022-09-20T11:10:27;100759.88;;;18.90;46.79
59411;BME280;45215;32.610;-115.482;2022-09-20T11:15:33;100764.09;;;19.81;49.80
59411;BME280;45215;32.610;-115.482;2022-09-20T11:18:13;100774.84;;;19.01;44.40
59411;BME280;45215;32.610;-115.482;2022-09-20T11:23:51;100794.91;;;19.79;52.71
59411;BME280;45215;32.610;-115.482;2022-09-20T11:26:49;100787.91;;;19.53;45.76
59411;BME280;45215;32.610;-115.482;2022-09-20T11:35:13;100780.22;;;19.90;48.19
59411;BME280;45215;32.610;-115.482;2022-09-20T11:37:52;100790.97;;;19.01;46.21
59411;BME280;45215;32.610;-115.482;2022-09-20T11:40:24;100803.06;;;19.38;51.99
59411;BME280;45215;32.610;-115.482;2022-09-20T11:42:52;100786.50;;;19.74;52.68
59411;BME280;45215;32.610;-115.482;2022-09-20T11:45:21;100790.44;;;19.47;45.48
59411;BME280;45215;32.610;-115.482;2022-09-20T11:47:55;100787.09;;;19.04;50.04
59411;BME280;45215;32.610;-115.482;2022-09-20T11:50:46;100796.63;;;19.64;53.00
59411;BME280;45215;32.610;-115.482;2022-09-20T11:56:22;100788.44;;;19.00;47.91
59411;BME280;45215;32.610;-115.482;2022-09-20T11:58:52;100783.56;;;19.36;52.41
59411;BME280;45215;32.610;-115.482;2022-09-20T12:04:04;100807.97;;;19.43;45.48
59411;BME280;45215;32.610;-115.482;2022-09-20T12:06:34;100787.78;;;18.98;49.98
59411;BME280;45215;32.610;-115.482;2022-09-20T12:09:05;100826.25;;;19.64;52.81
59411;BME280;45215;32.610;-115.482;2022-09-20T12:11:36;100827.00;;;19.97;49.98
59411;BME280;45215;32.610;-115.482;2022-09-20T12:14:27;100829.63;;;19.00;46.19
59411;BME280;45215;32.610;-115.482;2022-09-20T12:16:54;100824.41;;;19.23;52.38
59411;BME280;45215;32.610;-115.482;2022-09-20T12:24:31;100829.63;;;19.00;48.66
59411;BME280;45215;32.610;-115.482;2022-09-20T12:26:59;100821.56;;;19.41;52.93
59411;BME280;45215;32.610;-115.482;2022-09-20T12:31:56;100811.81;;;19.40;46.28
59411;BME280;45215;32.610;-115.482;2022-09-20T12:39:29;100838.06;;;20.02;50.95
59411;BME280;45215;32.610;-115.482;2022-09-20T12:41:58;100834.69;;;19.28;45.13
59411;BME280;45215;32.610;-115.482;2022-09-20T13:08:48;100864.19;;;19.93;48.99
59411;BME280;45215;32.610;-115.482;2022-09-20T13:11:44;100852.69;;;19.27;51.20
59411;BME280;45215;32.610;-115.482;2022-09-20T13:14:31;100873.97;;;19.94;54.66
59411;BME280;45215;32.610;-115.482;2022-09-20T13:19:36;100879.91;;;19.41;48.15
59411;BME280;45215;32.610;-115.482;2022-09-20T13:24:41;100891.78;;;20.03;55.40
59411;BME280;45215;32.610;-115.482;2022-09-20T13:27:24;100864.59;;;19.66;49.19
59411;BME280;45215;32.610;-115.482;2022-09-20T13:29:51;100884.94;;;19.27;51.52
59411;BME280;45215;32.610;-115.482;2022-09-20T13:32:29;100887.59;;;19.76;54.68
59411;BME280;45215;32.610;-115.482;2022-09-20T13:37:56;100880.91;;;19.48;47.78
59411;BME280;45215;32.610;-115.482;2022-09-20T13:40:30;100899.25;;;19.44;54.21
59411;BME280;45215;32.610;-115.482;2022-09-20T13:43:03;100891.13;;;19.85;55.98
59411;BME280;45215;32.610;-115.482;2022-09-20T13:45:32;100904.19;;;20.13;52.67
59411;BME280;45215;32.610;-115.482;2022-09-20T13:47:59;100900.25;;;19.27;48.23
59411;BME280;45215;32.610;-115.482;2022-09-20T13:50:27;100904.94;;;19.33;53.96
59411;BME280;45215;32.610;-115.482;2022-09-20T13:53:00;100909.66;;;19.80;56.45
59411;BME280;45215;32.610;-115.482;2022-09-20T13:55:35;100905.91;;;20.05;54.04
59411;BME280;45215;32.610;-115.482;2022-09-20T13:58:17;100905.22;;;19.05;48.69
59411;BME280;45215;32.610;-115.482;2022-09-20T14:01:00;100916.38;;;19.27;54.64
59411;BME280;45215;32.610;-115.482;2022-09-20T14:03:27;100917.56;;;19.81;56.48
59411;BME280;45215;32.610;-115.482;2022-09-20T14:05:59;100913.34;;;19.87;50.92
59411;BME280;45215;32.610;-115.482;2022-09-20T14:09:03;100928.59;;;19.05;49.38
59411;BME280;45215;32.610;-115.482;2022-09-20T14:11:24;100935.59;;;19.48;55.68
59411;BME280;45215;32.610;-115.482;2022-09-20T14:13:54;100929.81;;;20.00;56.45
59411;BME280;45215;32.610;-115.482;2022-09-20T14:16:26;100927.16;;;19.59;49.15
59411;BME280;45215;32.610;-115.482;2022-09-20T14:18:54;100926.91;;;19.04;50.91
59411;BME280;45215;32.610;-115.482;2022-09-20T14:21:25;100934.22;;;19.52;55.46
59411;BME280;45215;32.610;-115.482;2022-09-20T14:23:58;100943.63;;;19.97;56.31
59411;BME280;45215;32.610;-115.482;2022-09-20T14:29:50;100925.38;;;18.93;52.49
59411;BME280;45215;32.610;-115.482;2022-09-20T14:32:25;100953.38;;;19.74;55.77
59411;BME280;45215;32.610;-115.482;2022-09-20T14:35:17;100960.78;;;19.47;49.14
59411;BME280;45215;32.610;-115.482;2022-09-20T14:38:07;100970.91;;;18.95;50.79
59411;BME280;45215;32.610;-115.482;2022-09-20T14:40:46;100976.25;;;19.53;55.68
59411;BME280;45215;32.610;-115.482;2022-09-20T14:43:30;100971.84;;;19.28;48.79
59411;BME280;45215;32.610;-115.482;2022-09-20T14:46:06;100961.50;;;18.56;48.07
59411;BME280;45215;32.610;-115.482;2022-09-20T14:48:37;100980.84;;;19.10;54.06
59411;BME280;45215;32.610;-115.482;2022-09-20T14:53:48;100983.94;;;18.73;46.25
59411;BME280;45215;32.610;-115.482;2022-09-20T14:56:24;100957.59;;;18.85;56.59
59411;BME280;45215;32.610;-115.482;2022-09-20T15:01:28;100973.88;;;20.24;56.86
59411;BME280;45215;32.610;-115.482;2022-09-20T15:03:55;100976.50;;;20.57;57.47
59411;BME280;45215;32.610;-115.482;2022-09-20T15:06:22;100973.88;;;20.80;56.89
59411;BME280;45215;32.610;-115.482;2022-09-20T15:08:49;100969.41;;;21.03;57.18
59411;BME280;45215;32.610;-115.482;2022-09-20T15:11:19;100976.22;;;21.22;56.85
59411;BME280;45215;32.610;-115.482;2022-09-20T15:13:45;100973.75;;;21.35;56.74
59411;BME280;45215;32.610;-115.482;2022-09-20T15:16:19;100974.69;;;21.51;56.56
59411;BME280;45215;32.610;-115.482;2022-09-20T15:18:46;100981.31;;;21.63;56.04
59411;BME280;45215;32.610;-115.482;2022-09-20T15:21:12;100981.16;;;21.88;56.12
59411;BME280;45215;32.610;-115.482;2022-09-20T15:23:39;100988.16;;;21.97;55.54
59411;BME280;45215;32.610;-115.482;2022-09-20T15:26:06;100980.97;;;22.04;54.94
59411;BME280;45215;32.610;-115.482;2022-09-20T15:28:33;100976.91;;;22.08;54.86
59411;BME280;45215;32.610;-115.482;2022-09-20T15:30:59;100978.13;;;22.20;54.02
59411;BME280;45215;32.610;-115.482;2022-09-20T15:33:29;100979.09;;;22.27;55.78
59411;BME280;45215;32.610;-115.482;2022-09-20T15:35:56;100983.81;;;22.40;53.22
59411;BME280;45215;32.610;-115.482;2022-09-20T15:38:23;100984.50;;;22.42;53.49
59411;BME280;45215;32.610;-115.482;2022-09-20T15:40:51;100988.69;;;22.45;53.27
59411;BME280;45215;32.610;-115.482;2022-09-20T15:43:20;100986.81;;;22.45;53.52
59411;BME280;45215;32.610;-115.482;2022-09-20T15:45:59;100990.81;;;22.49;53.16
59411;BME280;45215;32.610;-115.482;2022-09-20T15:48:28;100992.13;;;22.54;52.97
59411;BME280;45215;32.610;-115.482;2022-09-20T15:51:02;100996.13;;;22.58;52.86
59411;BME280;45215;32.610;-115.482;2022-09-20T15:54:00;100999.56;;;22.66;52.85
59411;BME280;45215;32.610;-115.482;2022-09-20T15:56:29;100995.53;;;22.70;52.38
59411;BME280;45215;32.610;-115.482;2022-09-20T15:58:58;100995.44;;;22.79;52.56
59411;BME280;45215;32.610;-115.482;2022-09-20T16:03:56;101000.69;;;22.87;52.46
59411;BME280;45215;32.610;-115.482;2022-09-20T16:06:23;100994.56;;;22.93;52.52
59411;BME280;45215;32.610;-115.482;2022-09-20T16:08:50;100974.03;;;22.84;52.03
59411;BME280;45215;32.610;-115.482;2022-09-20T16:11:18;100995.38;;;23.08;52.28
59411;BME280;45215;32.610;-115.482;2022-09-20T16:13:55;100991.88;;;23.14;52.35
59411;BME280;45215;32.610;-115.482;2022-09-20T16:16:23;100983.38;;;23.17;52.54
59411;BME280;45215;32.610;-115.482;2022-09-20T16:18:50;100986.94;;;23.18;52.58
59411;BME280;45215;32.610;-115.482;2022-09-20T16:21:36;100994.75;;;23.28;52.28
59411;BME280;45215;32.610;-115.482;2022-09-20T16:24:05;100991.28;;;23.34;52.60
59411;BME280;45215;32.610;-115.482;2022-09-20T16:26:32;101000.06;;;23.36;53.25
59411;BME280;45215;32.610;-115.482;2022-09-20T16:29:03;100992.94;;;23.35;53.36
59411;BME280;45215;32.610;-115.482;2022-09-20T16:31:47;101003.63;;;23.58;53.23
59411;BME280;45215;32.610;-115.482;2022-09-20T16:34:19;101005.50;;;23.57;54.05
59411;BME280;45215;32.610;-115.482;2022-09-20T16:36:47;101006.97;;;23.60;54.26
59411;BME280;45215;32.610;-115.482;2022-09-20T16:39:15;101006.97;;;23.60;55.03
59411;BME280;45215;32.610;-115.482;2022-09-20T16:41:42;101008.06;;;23.66;55.39
59411;BME280;45215;32.610;-115.482;2022-09-20T16:44:10;101006.19;;;23.66;55.57
59411;BME280;45215;32.610;-115.482;2022-09-20T16:46:36;100980.72;;;23.60;56.12
59411;BME280;45215;32.610;-115.482;2022-09-20T16:49:04;101000.66;;;23.74;56.32
59411;BME280;45215;32.610;-115.482;2022-09-20T16:51:34;101005.50;;;23.79;56.60
59411;BME280;45215;32.610;-115.482;2022-09-20T16:54:20;101012.72;;;23.72;56.26
59411;BME280;45215;32.610;-115.482;2022-09-20T16:56:48;101009.69;;;23.81;56.62
59411;BME280;45215;32.610;-115.482;2022-09-20T16:59:17;101007.81;;;23.82;57.08
59411;BME280;45215;32.610;-115.482;2022-09-20T17:01:44;101015.81;;;23.90;57.12
59411;BME280;45215;32.610;-115.482;2022-09-20T17:04:10;101023.56;;;23.93;57.44
59411;BME280;45215;32.610;-115.482;2022-09-20T17:06:42;101015.59;;;23.92;57.54
59411;BME280;45215;32.610;-115.482;2022-09-20T17:09:09;101013.16;;;23.97;57.64
59411;BME280;45215;32.610;-115.482;2022-09-20T17:11:40;100984.16;;;23.69;54.36
59411;BME280;45215;32.610;-115.482;2022-09-20T17:14:08;101002.22;;;22.45;51.20
59411;BME280;45215;32.610;-115.482;2022-09-20T17:16:36;101000.63;;;21.52;49.70
59411;BME280;45215;32.610;-115.482;2022-09-20T17:19:08;100996.25;;;20.88;48.37
59411;BME280;45215;32.610;-115.482;2022-09-20T17:21:38;100996.41;;;21.26;56.20
59411;BME280;45215;32.610;-115.482;2022-09-20T17:24:05;101001.47;;;21.52;51.68
59411;BME280;45215;32.610;-115.482;2022-09-20T17:26:37;101002.59;;;21.04;48.65
59411;BME280;45215;32.610;-115.482;2022-09-20T17:29:06;100995.66;;;20.62;47.50
59411;BME280;45215;32.610;-115.482;2022-09-20T17:31:36;100999.19;;;20.70;51.78
59411;BME280;45215;32.610;-115.482;2022-09-20T17:34:05;101006.50;;;21.32;55.41
59411;BME280;45215;32.610;-115.482;2022-09-20T17:36:44;101003.25;;;21.14;50.20
59411;BME280;45215;32.610;-115.482;2022-09-20T17:39:12;101001.34;;;20.75;47.01
59411;BME280;45215;32.610;-115.482;2022-09-20T17:41:40;100998.09;;;20.48;47.39
59411;BME280;45215;32.610;-115.482;2022-09-20T17:44:07;101004.31;;;20.97;54.48
59411;BME280;45215;32.610;-115.482;2022-09-20T17:46:42;100983.19;;;20.69;47.93
59411;BME280;45215;32.610;-115.482;2022-09-20T17:49:11;100987.84;;;20.36;45.51
59411;BME280;45215;32.610;-115.482;2022-09-20T17:51:40;100991.41;;;19.95;43.95
59411;BME280;45215;32.610;-115.482;2022-09-20T17:54:08;100993.09;;;20.21;50.95
59411;BME280;45215;32.610;-115.482;2022-09-20T17:56:41;100998.56;;;20.52;48.84
59411;BME280;45215;32.610;-115.482;2022-09-20T17:59:09;100985.00;;;20.04;45.49
59411;BME280;45215;32.610;-115.482;2022-09-20T18:01:36;100987.38;;;19.67;44.03
59411;BME280;45215;32.610;-115.482;2022-09-20T18:04:04;100994.78;;;19.97;50.68
59411;BME280;45215;32.610;-115.482;2022-09-20T18:06:35;100997.75;;;20.52;53.96